Tucker, AR (72168)

9:27 AM CDT on May 28, 2015 (GMT -0500)
Cornerstone Farms | | Change Station
CLOSE
Current Station
Personal Weather Station
Location: Altheimer, AR
Elevation: 203 ft
Nearby Weather Stations

Elev 203 ft 34.24 °N, 91.76 °W | Updated 2 minutes ago

Overcast
Overcast
70.3 °F
Feels Like 70.3 °F
N
3.0
Wind Variable Wind from SSE
Gusts 6.0 mph

Today
High -- | Low -- °F
--% Chance of Precip.
Yesterday
High -- | Low -- °F
Precip. -- in
5:57 AM 8:12 PM
Waxing Gibbous, 76% visible
Pressure 30.12 in
Visibility 10.0 miles
Clouds Overcast 700 ft
Dew Point 70 °F
Humidity 98%
Rainfall 0.00 in
Snow Depth Not available.
UV 1 out of 12
Pollen 5.90 out of 12
Air Quality Not available.
Flu Activity No Activity
METAR KPBF 281353Z AUTO 09006KT 10SM OVC007 22/21 A3012 RMK AO2 CIG 006V012 SLP198 T02220206

More Conditions Fewer Conditions

Pressure 30.12 in
Visibility 10.0 miles
Clouds Overcast 700 ft
Dew Point 70 °F
Humidity 98%
Rainfall 0.00 in
Snow Depth Not available.
UV 1 out of 12
Pollen 5.90 out of 12
Air Quality Not available.
Flu Activity No Activity
METAR KPBF 281353Z AUTO 09006KT 10SM OVC007 22/21 A3012 RMK AO2 CIG 006V012 SLP198 T02220206

More Conditions Fewer Conditions

10-Day Weather Forecast

Almanac

Astronomy

May. 28, 2015 Rise Set
Actual Time
Civil Twilight
Nautical Twilight
Astronomical Twilight
Moon
Length of Visible Light
Length of Day
Tomorrow will be .
, % of the Moon is Illuminated

Today's Extremes

State Highs State Lows

Community

WunderPhotos

Upload Photos

1,824,983 photos uploaded!

WunderBlogs® & News

Nearby

Air Quality

  Air Quality AQ Index Pollutant
Not available.

Snow Depth

Station Depth Elevation

Earthquake Activity

City Distance Mag. Time & Date
Minimum magnitude displayed is 2.5.

Coastal Water Temperatures

Place Temperature

Stations

Nearby Weather Stations

Station Location Temp. Windchill Dew Point Humidity Wind Precip. Elev Updated Type